createdAt,value
2023-03-19T00:00:44.083Z,8.90
2023-03-19T00:03:11.014Z,8.80
2023-03-19T00:05:38.452Z,8.70
2023-03-19T00:08:05.775Z,8.70
2023-03-19T00:10:32.578Z,8.60
2023-03-19T00:12:59.410Z,8.60
2023-03-19T00:15:26.274Z,8.60
2023-03-19T00:17:54.301Z,8.60
2023-03-19T00:20:22.308Z,8.60
2023-03-19T00:22:49.191Z,8.70
2023-03-19T00:25:16.153Z,8.70
2023-03-19T00:27:44.513Z,8.70
2023-03-19T00:30:12.264Z,8.60
2023-03-19T00:32:39.518Z,8.60
2023-03-19T00:35:07.185Z,8.70
2023-03-19T00:37:34.935Z,8.60
2023-03-19T00:40:02.041Z,8.60
2023-03-19T00:42:29.553Z,8.60
2023-03-19T00:44:56.875Z,8.60
2023-03-19T00:47:24.418Z,8.60
2023-03-19T00:49:51.420Z,8.60
2023-03-19T00:52:18.196Z,8.60
2023-03-19T00:54:45.016Z,8.60
2023-03-19T00:57:11.892Z,8.60
2023-03-19T00:59:38.683Z,8.60
2023-03-19T01:02:06.010Z,8.50
2023-03-19T01:04:33.060Z,8.60
2023-03-19T01:07:03.207Z,8.50
2023-03-19T01:09:30.232Z,8.60
2023-03-19T01:11:57.437Z,8.60
2023-03-19T01:14:24.716Z,8.60
2023-03-19T01:16:51.932Z,8.60
2023-03-19T01:19:20.074Z,8.60
2023-03-19T01:21:46.959Z,8.60
2023-03-19T01:24:14.116Z,8.60
2023-03-19T01:26:42.157Z,8.60
2023-03-19T01:29:09.722Z,8.60
2023-03-19T01:31:37.379Z,8.60
2023-03-19T01:34:04.703Z,8.60
2023-03-19T01:36:31.543Z,8.50
2023-03-19T01:38:58.439Z,8.50
2023-03-19T01:41:25.411Z,8.40
2023-03-19T01:43:52.258Z,8.40
2023-03-19T01:46:34.710Z,8.40
2023-03-19T01:49:06.288Z,8.30
2023-03-19T01:51:39.641Z,8.30
2023-03-19T01:54:12.433Z,8.20
2023-03-19T01:56:43.317Z,8.20
2023-03-19T01:59:20.414Z,8.20
2023-03-19T02:01:56.996Z,8.20
2023-03-19T02:04:26.788Z,8.20
2023-03-19T02:06:56.853Z,8.30
2023-03-19T02:09:25.733Z,8.20
2023-03-19T02:11:54.578Z,8.20
2023-03-19T02:14:21.719Z,8.10
2023-03-19T02:16:49.277Z,8.00
2023-03-19T02:19:26.572Z,8.00
2023-03-19T02:21:55.311Z,8.00
2023-03-19T02:24:38.778Z,8.00
2023-03-19T02:27:09.309Z,8.00
2023-03-19T02:29:36.342Z,8.00
2023-03-19T02:32:03.800Z,8.00
2023-03-19T02:34:39.330Z,7.90
2023-03-19T02:37:14.326Z,7.90
2023-03-19T02:39:56.828Z,7.90
2023-03-19T02:42:27.365Z,7.80
2023-03-19T02:44:54.150Z,7.90
2023-03-19T02:47:23.723Z,7.90
2023-03-19T02:49:50.612Z,7.90
2023-03-19T02:52:18.249Z,7.90
2023-03-19T02:54:45.107Z,7.90
2023-03-19T02:57:12.177Z,7.90
2023-03-19T02:59:39.407Z,7.80
2023-03-19T03:02:06.992Z,7.80
2023-03-19T03:04:37.570Z,7.80
2023-03-19T03:07:06.195Z,7.70
2023-03-19T03:09:33.440Z,7.70
2023-03-19T03:12:00.934Z,7.80
2023-03-19T03:14:27.958Z,7.80
2023-03-19T03:16:55.126Z,7.80
2023-03-19T03:19:21.974Z,7.90
2023-03-19T03:21:48.908Z,7.90
2023-03-19T03:24:15.737Z,7.90
2023-03-19T03:26:42.559Z,7.90
2023-03-19T03:29:09.420Z,7.90
2023-03-19T03:31:36.666Z,7.90
2023-03-19T03:34:03.735Z,7.90
2023-03-19T03:36:30.538Z,7.90
2023-03-19T03:38:57.410Z,7.90
2023-03-19T03:41:24.463Z,7.90
2023-03-19T03:43:51.628Z,7.90
2023-03-19T03:46:18.578Z,7.90
2023-03-19T03:48:45.448Z,7.90
2023-03-19T03:51:12.410Z,8.00
2023-03-19T03:53:39.281Z,7.90
2023-03-19T03:56:06.422Z,8.00
2023-03-19T03:58:33.272Z,8.00
2023-03-19T04:01:00.155Z,7.90
2023-03-19T04:03:27.246Z,7.90
2023-03-19T04:05:54.069Z,7.90
2023-03-19T04:08:20.968Z,7.90
2023-03-19T04:10:47.810Z,7.90
2023-03-19T04:13:14.660Z,7.80
2023-03-19T04:15:45.141Z,7.70
2023-03-19T04:18:12.016Z,7.70
2023-03-19T04:20:38.880Z,7.60
2023-03-19T04:23:06.950Z,7.60
2023-03-19T04:25:33.780Z,7.50
2023-03-19T04:28:00.549Z,7.50
2023-03-19T04:30:27.831Z,7.50
2023-03-19T04:32:54.901Z,7.50
2023-03-19T04:35:22.860Z,7.50
2023-03-19T04:37:49.736Z,7.40
2023-03-19T04:40:17.122Z,7.50
2023-03-19T04:42:44.730Z,7.50
2023-03-19T04:45:12.304Z,7.50
2023-03-19T04:47:39.602Z,7.50
2023-03-19T04:50:07.996Z,7.60
2023-03-19T04:52:35.427Z,7.50
2023-03-19T04:55:02.554Z,7.50
2023-03-19T04:57:29.350Z,7.50
2023-03-19T04:59:56.245Z,7.50
2023-03-19T05:02:23.369Z,7.50
2023-03-19T05:04:50.331Z,7.50
2023-03-19T05:07:17.376Z,7.60
2023-03-19T05:09:46.251Z,7.60
2023-03-19T05:12:13.557Z,7.60
2023-03-19T05:14:40.380Z,7.60
2023-03-19T05:17:07.568Z,7.60
2023-03-19T05:19:34.401Z,7.60
2023-03-19T05:22:01.194Z,7.60
2023-03-19T05:24:28.139Z,7.70
2023-03-19T05:26:55.320Z,7.70
2023-03-19T05:29:22.144Z,7.70
2023-03-19T05:31:49.293Z,7.70
2023-03-19T05:34:16.259Z,7.70
2023-03-19T05:36:43.082Z,7.80
2023-03-19T05:39:10.185Z,7.80
2023-03-19T05:41:37.093Z,7.80
2023-03-19T05:44:05.535Z,7.80
2023-03-19T05:46:32.530Z,7.80
2023-03-19T05:48:59.383Z,7.80
2023-03-19T05:51:26.489Z,7.80
2023-03-19T05:53:53.295Z,7.90
2023-03-19T05:56:20.075Z,7.90
2023-03-19T05:58:46.939Z,7.90
2023-03-19T06:01:13.955Z,8.00
2023-03-19T06:03:40.951Z,8.00
2023-03-19T06:06:08.055Z,8.10
2023-03-19T06:08:34.874Z,8.10
2023-03-19T06:11:01.657Z,8.20
2023-03-19T06:13:28.558Z,8.20
2023-03-19T06:15:55.469Z,8.30
2023-03-19T06:18:22.519Z,8.30
2023-03-19T06:20:49.423Z,8.40
2023-03-19T06:23:16.488Z,8.40
2023-03-19T06:25:43.418Z,8.40
2023-03-19T06:28:10.340Z,8.40
2023-03-19T06:30:37.377Z,8.40
2023-03-19T06:33:04.348Z,8.40
2023-03-19T06:35:31.451Z,8.40
2023-03-19T06:37:58.649Z,8.40
2023-03-19T06:40:25.497Z,8.40
2023-03-19T06:42:53.016Z,8.40
2023-03-19T06:45:20.341Z,8.40
2023-03-19T06:47:47.748Z,8.50
2023-03-19T06:50:19.432Z,8.50
2023-03-19T06:52:46.709Z,8.50
2023-03-19T06:55:13.848Z,8.60
2023-03-19T06:57:40.879Z,8.60
2023-03-19T07:00:10.465Z,8.70
2023-03-19T07:02:37.587Z,8.70
2023-03-19T07:05:05.490Z,8.80
2023-03-19T07:07:32.331Z,8.90
2023-03-19T07:09:59.160Z,8.90
2023-03-19T07:12:29.071Z,9.00
2023-03-19T07:14:56.433Z,9.10
2023-03-19T07:17:24.091Z,9.10
2023-03-19T07:19:51.428Z,9.10
2023-03-19T07:22:18.664Z,9.20
2023-03-19T07:24:45.723Z,9.20
2023-03-19T07:27:12.622Z,9.20
2023-03-19T07:29:39.630Z,9.10
2023-03-19T07:32:06.868Z,9.20
2023-03-19T07:34:34.022Z,9.20
2023-03-19T07:37:01.453Z,9.20
2023-03-19T07:39:28.560Z,9.30
2023-03-19T07:41:56.098Z,9.30
2023-03-19T07:44:22.979Z,9.40
2023-03-19T07:46:49.813Z,9.40
2023-03-19T07:49:16.661Z,9.50
2023-03-19T07:51:43.555Z,9.50
2023-03-19T07:54:10.337Z,9.60
2023-03-19T07:56:37.363Z,9.60
2023-03-19T07:59:04.137Z,9.60
2023-03-19T08:01:31.116Z,9.70
2023-03-19T08:03:58.052Z,9.70
2023-03-19T08:06:25.127Z,9.70
2023-03-19T08:08:51.955Z,9.80
2023-03-19T08:11:18.996Z,9.90
2023-03-19T08:13:45.980Z,10.00
2023-03-19T08:16:13.537Z,10.10
2023-03-19T08:18:40.664Z,10.20
2023-03-19T08:21:07.638Z,10.30
2023-03-19T08:23:35.364Z,10.40
2023-03-19T08:26:02.320Z,10.50
2023-03-19T08:28:29.211Z,10.50
2023-03-19T08:30:56.566Z,10.60
2023-03-19T08:33:23.596Z,10.70
2023-03-19T08:35:50.598Z,10.70
2023-03-19T08:38:17.468Z,10.80
2023-03-19T08:40:45.682Z,10.90
2023-03-19T08:43:12.495Z,11.00
2023-03-19T08:45:39.311Z,11.00
2023-03-19T08:48:06.465Z,11.10
2023-03-19T08:50:33.811Z,11.20
2023-03-19T08:53:00.970Z,11.30
2023-03-19T08:55:27.785Z,11.30
2023-03-19T08:57:54.629Z,11.50
2023-03-19T09:00:22.224Z,11.50
2023-03-19T09:02:49.198Z,11.60
2023-03-19T09:05:16.496Z,11.70
2023-03-19T09:07:43.300Z,11.80
2023-03-19T09:10:10.717Z,11.90
2023-03-19T09:12:37.615Z,12.00
2023-03-19T09:15:04.866Z,12.00
2023-03-19T09:17:31.795Z,12.00
2023-03-19T09:19:58.838Z,12.20
2023-03-19T09:22:26.065Z,12.20
2023-03-19T09:24:52.934Z,12.20
2023-03-19T09:27:21.045Z,12.30
2023-03-19T09:29:47.886Z,12.40
2023-03-19T09:32:14.883Z,12.40
2023-03-19T09:34:41.660Z,12.40
2023-03-19T09:37:08.613Z,12.50
2023-03-19T09:39:35.601Z,12.60
2023-03-19T09:42:35.918Z,12.70
2023-03-19T09:45:03.189Z,12.90
2023-03-19T09:47:33.943Z,13.20
2023-03-19T09:50:06.877Z,13.30
2023-03-19T09:53:03.051Z,13.40
2023-03-19T09:55:52.577Z,13.60
2023-03-19T09:58:22.516Z,13.70
2023-03-19T10:00:54.205Z,13.80
2023-03-19T10:03:47.854Z,13.80
2023-03-19T10:06:34.239Z,13.90
2023-03-19T10:09:20.029Z,14.00
2023-03-19T10:12:12.693Z,14.10
2023-03-19T10:15:11.739Z,14.20
2023-03-19T10:17:44.996Z,14.40
2023-03-19T10:20:24.876Z,14.50
2023-03-19T10:22:59.514Z,14.80
2023-03-19T10:25:29.532Z,15.00
2023-03-19T10:28:01.511Z,15.30
2023-03-19T10:30:32.228Z,15.50
2023-03-19T10:33:23.454Z,15.60
2023-03-19T10:36:05.983Z,15.50
2023-03-19T10:38:33.726Z,15.60
2023-03-19T10:41:15.076Z,15.70
2023-03-19T10:43:43.919Z,15.80
2023-03-19T10:46:15.692Z,15.90
2023-03-19T10:48:46.824Z,15.90
2023-03-19T10:51:25.977Z,15.90
2023-03-19T10:53:55.521Z,16.00
2023-03-19T10:56:25.583Z,16.00
2023-03-19T10:59:19.634Z,16.10
2023-03-19T11:01:46.459Z,16.20
2023-03-19T11:04:23.432Z,16.30
2023-03-19T11:06:55.907Z,16.30
2023-03-19T11:09:49.587Z,16.30
2023-03-19T11:12:52.904Z,16.50
2023-03-19T11:15:22.808Z,16.50
2023-03-19T11:17:57.760Z,16.60
2023-03-19T11:20:37.637Z,16.60
2023-03-19T11:23:14.068Z,16.70
2023-03-19T11:25:52.726Z,16.80
2023-03-19T11:28:26.711Z,16.80
2023-03-19T11:31:11.871Z,16.80
2023-03-19T11:33:51.297Z,16.90
2023-03-19T11:36:38.048Z,17.00
2023-03-19T11:39:42.119Z,17.10
2023-03-19T11:42:40.744Z,17.00
2023-03-19T11:45:22.515Z,16.90
2023-03-19T11:48:13.673Z,16.90
2023-03-19T11:51:05.643Z,16.80
2023-03-19T11:53:45.489Z,16.80
2023-03-19T11:56:33.185Z,16.60
2023-03-19T11:59:27.696Z,16.50
2023-03-19T12:02:00.588Z,16.60
2023-03-19T12:04:42.181Z,16.50
2023-03-19T12:07:30.775Z,16.60
2023-03-19T12:10:17.352Z,16.50
2023-03-19T12:12:55.187Z,16.40
2023-03-19T12:16:11.251Z,16.30
2023-03-19T12:19:19.458Z,16.20
2023-03-19T12:22:13.477Z,16.20
2023-03-19T12:24:43.172Z,15.90
2023-03-19T12:27:30.563Z,15.80
2023-03-19T12:30:13.392Z,15.70
2023-03-19T12:32:54.550Z,15.60
2023-03-19T12:35:34.414Z,15.60
2023-03-19T12:38:30.032Z,15.50
2023-03-19T12:41:03.620Z,15.50
2023-03-19T12:43:54.045Z,15.40
2023-03-19T12:46:28.847Z,15.50
2023-03-19T12:49:14.782Z,15.50
2023-03-19T12:51:46.713Z,15.50
2023-03-19T12:54:26.487Z,15.50
2023-03-19T12:57:15.533Z,15.50
2023-03-19T13:00:09.865Z,15.50
2023-03-19T13:02:47.687Z,15.50
2023-03-19T13:05:35.676Z,15.50
2023-03-19T13:08:24.732Z,15.50
2023-03-19T13:10:51.840Z,15.60
2023-03-19T13:13:52.552Z,15.60
2023-03-19T13:16:31.437Z,15.60
2023-03-19T13:19:10.424Z,15.60
2023-03-19T13:21:39.305Z,15.70
2023-03-19T13:24:28.946Z,15.70
2023-03-19T13:26:58.573Z,15.60
2023-03-19T13:29:30.761Z,15.50
2023-03-19T13:32:04.993Z,15.50
2023-03-19T13:34:38.704Z,15.50
2023-03-19T13:37:11.431Z,15.50
2023-03-19T13:39:38.849Z,15.50
2023-03-19T13:42:44.673Z,15.50
2023-03-19T13:45:36.073Z,15.50
2023-03-19T13:48:27.115Z,15.50
2023-03-19T13:51:01.856Z,15.60
2023-03-19T13:53:34.437Z,15.60
2023-03-19T13:56:26.227Z,15.60
2023-03-19T13:59:20.603Z,15.60
2023-03-19T14:01:47.725Z,15.60
2023-03-19T14:04:25.766Z,15.70
2023-03-19T14:07:11.590Z,15.70
2023-03-19T14:09:50.497Z,15.70
2023-03-19T14:12:23.415Z,15.80
2023-03-19T14:14:55.234Z,15.80
2023-03-19T14:17:27.519Z,15.90
2023-03-19T14:19:54.941Z,16.00
2023-03-19T14:22:40.644Z,15.90
2023-03-19T14:25:20.790Z,15.90
2023-03-19T14:27:55.429Z,15.80
2023-03-19T14:30:25.785Z,15.80
2023-03-19T14:32:55.561Z,15.70
2023-03-19T14:35:26.397Z,15.60
2023-03-19T14:37:54.312Z,15.60
2023-03-19T14:40:41.535Z,15.60
2023-03-19T14:43:22.660Z,15.60
2023-03-19T14:45:55.066Z,15.60
2023-03-19T14:48:55.852Z,15.60
2023-03-19T14:51:41.126Z,15.60
2023-03-19T14:54:30.687Z,15.60
2023-03-19T14:56:57.900Z,15.60
2023-03-19T14:59:25.112Z,15.60
2023-03-19T15:01:55.163Z,15.60
2023-03-19T15:04:26.148Z,15.60
2023-03-19T15:06:56.568Z,15.60
2023-03-19T15:09:29.736Z,15.50
2023-03-19T15:12:19.177Z,15.50
2023-03-19T15:15:09.682Z,15.50
2023-03-19T15:17:38.776Z,15.50
2023-03-19T15:20:22.959Z,15.60
2023-03-19T15:22:59.851Z,15.60
2023-03-19T15:25:27.214Z,15.70
2023-03-19T15:28:14.536Z,15.70
2023-03-19T15:30:53.904Z,15.70
2023-03-19T15:33:40.138Z,15.80
2023-03-19T15:36:19.901Z,15.80
2023-03-19T15:38:50.993Z,15.80
2023-03-19T15:41:18.753Z,15.70
2023-03-19T15:43:45.843Z,15.70
2023-03-19T15:46:16.279Z,15.80
2023-03-19T15:49:07.653Z,15.80
2023-03-19T15:51:34.921Z,15.80
2023-03-19T15:54:04.104Z,15.70
2023-03-19T15:56:32.419Z,15.80
2023-03-19T15:59:00.267Z,15.80
2023-03-19T16:01:28.243Z,15.70
2023-03-19T16:04:06.999Z,15.70
2023-03-19T16:06:40.490Z,15.50
2023-03-19T16:09:25.322Z,15.60
2023-03-19T16:11:53.100Z,15.60
2023-03-19T16:14:31.672Z,15.50
2023-03-19T16:17:03.970Z,15.50
2023-03-19T16:19:36.467Z,15.50
2023-03-19T16:22:13.158Z,15.40
2023-03-19T16:24:42.766Z,15.40
2023-03-19T16:27:19.437Z,15.40
2023-03-19T16:29:57.200Z,15.30
2023-03-19T16:32:29.446Z,15.30
2023-03-19T16:35:03.914Z,15.30
2023-03-19T16:37:50.505Z,15.30
2023-03-19T16:40:20.808Z,15.30
2023-03-19T16:42:52.797Z,15.30
2023-03-19T16:45:22.031Z,15.30
2023-03-19T16:47:51.318Z,15.30
2023-03-19T16:50:20.568Z,15.20
2023-03-19T16:52:48.426Z,15.20
2023-03-19T16:55:24.253Z,15.20
2023-03-19T16:57:57.596Z,15.20
2023-03-19T17:00:26.258Z,15.20
2023-03-19T17:02:55.913Z,15.20
2023-03-19T17:05:23.454Z,15.10
2023-03-19T17:07:51.777Z,15.00
2023-03-19T17:10:20.705Z,15.00
2023-03-19T17:12:53.461Z,15.00
2023-03-19T17:15:36.351Z,14.90
2023-03-19T17:18:13.330Z,14.90
2023-03-19T17:20:47.768Z,14.80
2023-03-19T17:23:14.736Z,14.80
2023-03-19T17:25:41.944Z,14.70
2023-03-19T17:28:08.906Z,14.70
2023-03-19T17:30:37.415Z,14.60
2023-03-19T17:33:04.783Z,14.60
2023-03-19T17:35:32.184Z,14.50
2023-03-19T17:37:59.123Z,14.50
2023-03-19T17:40:28.076Z,14.40
2023-03-19T17:42:58.353Z,14.40
2023-03-19T17:45:29.809Z,14.30
2023-03-19T17:47:58.652Z,14.20
2023-03-19T17:50:31.583Z,14.10
2023-03-19T17:52:59.149Z,14.00
2023-03-19T17:55:28.669Z,13.90
2023-03-19T17:57:56.178Z,13.90
2023-03-19T18:00:24.760Z,13.80
2023-03-19T18:02:54.212Z,13.70
2023-03-19T18:05:24.352Z,13.70
2023-03-19T18:07:54.599Z,13.60
2023-03-19T18:10:27.709Z,13.60
2023-03-19T18:12:54.809Z,13.50
2023-03-19T18:15:26.105Z,13.40
2023-03-19T18:17:56.189Z,13.40
2023-03-19T18:20:26.404Z,13.40
2023-03-19T18:22:53.323Z,13.30
2023-03-19T18:25:23.756Z,13.20
2023-03-19T18:27:51.104Z,13.20
2023-03-19T18:30:21.275Z,13.10
2023-03-19T18:32:52.696Z,13.10
2023-03-19T18:35:28.950Z,13.10
2023-03-19T18:37:56.552Z,13.00
2023-03-19T18:40:26.028Z,13.00
2023-03-19T18:42:53.234Z,12.90
2023-03-19T18:45:20.752Z,12.90
2023-03-19T18:47:49.129Z,12.90
2023-03-19T18:50:22.021Z,12.90
2023-03-19T18:52:51.588Z,12.80
2023-03-19T18:55:19.588Z,12.80
2023-03-19T18:57:56.190Z,12.70
2023-03-19T19:00:34.824Z,12.70
2023-03-19T19:03:02.820Z,12.70
2023-03-19T19:05:32.158Z,12.60
2023-03-19T19:08:01.426Z,12.60
2023-03-19T19:10:36.675Z,12.50
2023-03-19T19:13:04.108Z,12.50
2023-03-19T19:15:36.479Z,12.50
2023-03-19T19:18:24.012Z,12.40
2023-03-19T19:20:53.012Z,12.40
2023-03-19T19:23:22.464Z,12.30
2023-03-19T19:25:55.418Z,12.30
2023-03-19T19:28:30.593Z,12.30
2023-03-19T19:30:59.812Z,12.20
2023-03-19T19:33:34.895Z,12.10
2023-03-19T19:36:03.153Z,12.00
2023-03-19T19:38:31.223Z,11.90
2023-03-19T19:41:00.371Z,11.80
2023-03-19T19:43:31.255Z,11.80
2023-03-19T19:45:59.035Z,11.70
2023-03-19T19:48:28.075Z,11.60
2023-03-19T19:50:56.439Z,11.50
2023-03-19T19:53:25.530Z,11.50
2023-03-19T19:55:53.634Z,11.40
2023-03-19T19:58:41.878Z,11.40
2023-03-19T20:01:20.021Z,11.30
2023-03-19T20:03:48.385Z,11.30
2023-03-19T20:06:15.648Z,11.20
2023-03-19T20:08:42.618Z,11.20
2023-03-19T20:11:16.688Z,11.10
2023-03-19T20:13:49.468Z,11.10
2023-03-19T20:16:17.298Z,10.90
2023-03-19T20:18:47.357Z,10.80
2023-03-19T20:21:16.256Z,10.70
2023-03-19T20:23:45.051Z,10.60
2023-03-19T20:26:16.944Z,10.50
2023-03-19T20:28:45.039Z,10.40
2023-03-19T20:31:26.462Z,10.40
2023-03-19T20:33:53.601Z,10.40
2023-03-19T20:36:23.419Z,10.40
2023-03-19T20:38:50.941Z,10.40
2023-03-19T20:41:21.090Z,10.40
2023-03-19T20:43:50.502Z,10.40
2023-03-19T20:46:24.245Z,10.30
2023-03-19T20:48:51.233Z,10.30
2023-03-19T20:51:25.055Z,10.30
2023-03-19T20:53:52.961Z,10.40
2023-03-19T20:56:24.894Z,10.40
2023-03-19T20:58:51.986Z,10.30
2023-03-19T21:01:20.308Z,10.30
2023-03-19T21:03:47.496Z,10.30
2023-03-19T21:06:20.864Z,10.20
2023-03-19T21:08:51.723Z,10.20
2023-03-19T21:11:23.528Z,10.10
2023-03-19T21:13:52.752Z,10.10
2023-03-19T21:16:25.579Z,10.10
2023-03-19T21:18:54.113Z,10.00
2023-03-19T21:21:32.549Z,9.90
2023-03-19T21:24:07.141Z,9.90
2023-03-19T21:26:39.864Z,9.80
2023-03-19T21:29:12.378Z,9.80
2023-03-19T21:31:39.272Z,9.70
2023-03-19T21:34:06.409Z,9.70
2023-03-19T21:36:33.462Z,9.60
2023-03-19T21:39:01.344Z,9.50
2023-03-19T21:41:32.866Z,9.40
2023-03-19T21:44:07.674Z,9.30
2023-03-19T21:46:35.365Z,9.20
2023-03-19T21:49:02.550Z,9.10
2023-03-19T21:51:29.723Z,9.10
2023-03-19T21:53:56.604Z,9.00
2023-03-19T21:56:32.877Z,9.00
2023-03-19T21:59:10.003Z,8.90
2023-03-19T22:01:36.840Z,8.90
2023-03-19T22:04:03.720Z,8.80
2023-03-19T22:06:30.756Z,8.80
2023-03-19T22:08:57.683Z,8.80
2023-03-19T22:11:30.408Z,8.80
2023-03-19T22:14:30.197Z,8.70
2023-03-19T22:16:57.326Z,8.60
2023-03-19T22:19:24.695Z,8.60
2023-03-19T22:21:51.660Z,8.60
2023-03-19T22:24:18.628Z,8.50
2023-03-19T22:26:49.573Z,8.50
2023-03-19T22:29:20.620Z,8.50
2023-03-19T22:31:52.025Z,8.50
2023-03-19T22:34:23.278Z,8.50
2023-03-19T22:36:50.494Z,8.60
2023-03-19T22:39:17.730Z,8.70
2023-03-19T22:41:47.928Z,8.80
2023-03-19T22:44:26.038Z,8.90
2023-03-19T22:46:54.127Z,9.00
2023-03-19T22:49:24.789Z,9.10
2023-03-19T22:51:53.098Z,9.10
2023-03-19T22:54:19.952Z,9.20
2023-03-19T22:56:46.865Z,9.20
2023-03-19T22:59:14.085Z,9.20
2023-03-19T23:01:46.349Z,9.20
2023-03-19T23:04:19.426Z,9.30
2023-03-19T23:06:46.862Z,9.30
2023-03-19T23:09:26.192Z,9.30
2023-03-19T23:11:53.948Z,9.30
2023-03-19T23:14:29.561Z,9.30
2023-03-19T23:17:00.829Z,9.40
2023-03-19T23:19:32.162Z,9.40
2023-03-19T23:22:00.125Z,9.40
2023-03-19T23:24:28.017Z,9.40
2023-03-19T23:26:56.834Z,9.30
2023-03-19T23:29:34.497Z,9.30
2023-03-19T23:32:01.763Z,9.20
2023-03-19T23:34:28.815Z,9.20
2023-03-19T23:36:56.796Z,9.10
2023-03-19T23:39:24.057Z,9.00
2023-03-19T23:41:54.505Z,9.00
2023-03-19T23:44:22.068Z,8.90
2023-03-19T23:46:51.586Z,8.80
2023-03-19T23:49:32.991Z,8.70
2023-03-19T23:52:00.851Z,8.60
2023-03-19T23:54:30.477Z,8.50
2023-03-19T23:56:59.862Z,8.50
2023-03-19T23:59:31.555Z,8.50
